Time;durP1;ratioP1;P1;durP2;ratioP2;P2;SDS_P1;SDS_P2;PMS_P1;PMS_P2;Temp;Humidity;BMP_temperature;BMP_pressure;BME280_temperature;BME280_humidity;BME280_pressure;Samples;Min_cycle;Max_cycle;Signal;HPM_P1;HPM_P2
2023/08/15 00:01:55;;;;;;;0.77;0.50;;;19.30;56.70;;;;;;5031891;28;20040;-61
2023/08/15 00:04:23;;;;;;;0.90;0.50;;;19.50;57.10;;;;;;5031835;28;20022;-61
2023/08/15 00:06:51;;;;;;;1.85;0.60;;;19.60;56.50;;;;;;5016205;28;20022;-61
2023/08/15 00:09:18;;;;;;;1.13;0.60;;;19.70;58.00;;;;;;5031632;28;20360;-60
2023/08/15 00:11:46;;;;;;;1.23;0.70;;;20.00;54.60;;;;;;5031584;28;20057;-61
2023/08/15 00:14:15;;;;;;;1.60;0.70;;;19.30;58.80;;;;;;5016244;28;20033;-60
2023/08/15 00:16:43;;;;;;;0.85;0.50;;;19.80;56.80;;;;;;5031631;28;20017;-60
2023/08/15 00:19:11;;;;;;;0.60;0.47;;;19.70;56.70;;;;;;4998802;28;20061;-60
2023/08/15 00:21:39;;;;;;;0.98;0.50;;;19.60;57.90;;;;;;5031451;28;20018;-60
2023/08/15 00:24:06;;;;;;;0.80;0.40;;;19.60;56.20;;;;;;5015183;28;20030;-60
2023/08/15 00:26:34;;;;;;;0.60;0.55;;;19.80;55.40;;;;;;5031376;28;20476;-60
2023/08/15 00:29:02;;;;;;;0.70;0.50;;;19.70;56.20;;;;;;5015079;28;20026;-61
2023/08/15 00:31:29;;;;;;;2.00;0.50;;;19.90;56.70;;;;;;5030932;28;20026;-61
2023/08/15 00:33:57;;;;;;;2.25;0.60;;;20.20;55.90;;;;;;5031409;28;20444;-61
2023/08/15 00:36:24;;;;;;;1.45;0.60;;;20.30;54.90;;;;;;5031331;28;20061;-60
2023/08/15 00:38:52;;;;;;;1.27;0.50;;;19.60;56.20;;;;;;5031152;28;20038;-61
2023/08/15 00:41:20;;;;;;;0.90;0.55;;;19.80;54.30;;;;;;5031306;28;20025;-60
2023/08/15 00:43:47;;;;;;;1.10;0.60;;;20.10;56.10;;;;;;5031327;28;20392;-60
2023/08/15 00:46:17;;;;;;;1.35;0.70;;;20.30;55.10;;;;;;5014761;28;20049;-61
2023/08/15 00:48:44;;;;;;;1.55;0.75;;;20.40;53.20;;;;;;5015521;28;20065;-61
2023/08/15 00:51:12;;;;;;;1.15;0.50;;;20.10;54.60;;;;;;5015687;28;20072;-61
2023/08/15 00:53:40;;;;;;;0.82;0.60;;;20.30;54.00;;;;;;5031039;28;20030;-62
2023/08/15 00:56:08;;;;;;;0.63;0.45;;;20.40;54.00;;;;;;5031123;28;20018;-62
2023/08/15 00:58:36;;;;;;;1.73;0.70;;;20.20;55.40;;;;;;5030843;28;20025;-61
2023/08/15 01:01:04;;;;;;;1.35;0.60;;;20.20;54.70;;;;;;5015482;28;20363;-60
2023/08/15 01:03:32;;;;;;;0.70;0.60;;;20.60;53.70;;;;;;5030900;28;20079;-61
2023/08/15 01:05:59;;;;;;;1.50;0.52;;;20.80;52.90;;;;;;5015476;28;20022;-62
2023/08/15 01:08:27;;;;;;;1.38;0.65;;;21.10;53.60;;;;;;5015328;28;20067;-61
2023/08/15 01:10:55;;;;;;;2.15;0.50;;;20.40;54.70;;;;;;5030924;28;20026;-62
2023/08/15 01:13:22;;;;;;;1.30;0.40;;;20.60;54.70;;;;;;5030815;28;20034;-62
2023/08/15 01:15:52;;;;;;;1.90;0.57;;;20.70;53.70;;;;;;5015457;28;20022;-61
2023/08/15 01:18:36;;;;;;;2.28;0.73;;;20.50;53.40;;;;;;5031894;28;20069;-61
2023/08/15 01:21:05;;;;;;;0.50;0.50;;;19.40;55.90;;;;;;5035128;28;20037;-61
2023/08/15 01:23:41;;;;;;;1.60;0.60;;;19.60;56.20;;;;;;5017776;28;20465;-62
2023/08/15 01:26:08;;;;;;;1.00;0.55;;;20.60;54.80;;;;;;5018214;28;20041;-61
2023/08/15 01:28:38;;;;;;;1.48;0.57;;;21.00;53.50;;;;;;5034854;28;20036;-61
2023/08/15 01:31:13;;;;;;;2.03;0.50;;;20.80;52.80;;;;;;5035007;28;20018;-60
2023/08/15 01:34:02;;;;;;;1.58;0.70;;;21.10;52.80;;;;;;5001252;28;20359;-61
2023/08/15 01:36:39;;;;;;;1.92;0.50;;;21.50;52.00;;;;;;5034997;28;20033;-61
2023/08/15 01:39:09;;;;;;;2.90;0.77;;;21.10;51.90;;;;;;5033684;28;20025;-61
2023/08/15 01:41:41;;;;;;;0.82;0.60;;;21.00;53.00;;;;;;5035006;28;20029;-61
2023/08/15 01:44:11;;;;;;;1.83;0.70;;;21.50;51.60;;;;;;5021341;28;20083;-61
2023/08/15 01:46:39;;;;;;;1.80;0.73;;;21.50;51.70;;;;;;5038758;28;20028;-61
2023/08/15 01:49:06;;;;;;;1.55;0.60;;;21.60;51.60;;;;;;5038713;28;20351;-61
2023/08/15 01:51:34;;;;;;;0.70;0.50;;;21.90;50.70;;;;;;5021245;28;20034;-62
2023/08/15 01:54:01;;;;;;;1.15;0.50;;;20.30;52.50;;;;;;5037684;28;20470;-62
2023/08/15 01:56:29;;;;;;;0.93;0.40;;;20.90;52.50;;;;;;5021215;28;20037;-61
2023/08/15 01:58:57;;;;;;;0.73;0.50;;;21.50;52.40;;;;;;5038555;28;20367;-61
2023/08/15 02:01:24;;;;;;;0.93;0.45;;;21.70;51.70;;;;;;5037665;28;20087;-61
2023/08/15 02:03:51;;;;;;;2.17;0.52;;;21.80;50.80;;;;;;5037362;28;20359;-61
2023/08/15 02:06:19;;;;;;;2.38;0.43;;;20.90;52.80;;;;;;5021056;28;20029;-61
2023/08/15 02:08:47;;;;;;;0.77;0.45;;;19.80;53.30;;;;;;5020832;28;20116;-61
2023/08/15 02:11:14;;;;;;;1.33;0.40;;;19.20;56.30;;;;;;5037217;28;20033;-61
2023/08/15 02:13:41;;;;;;;0.98;0.50;;;19.70;55.90;;;;;;5037034;28;20036;-61
2023/08/15 02:16:09;;;;;;;0.85;0.50;;;19.70;55.20;;;;;;5037186;28;20347;-61
2023/08/15 02:18:36;;;;;;;0.30;0.30;;;20.70;53.10;;;;;;5033626;28;20042;-61
2023/08/15 02:21:04;;;;;;;1.08;0.40;;;21.30;51.80;;;;;;5033781;28;20049;-61
2023/08/15 02:23:31;;;;;;;0.68;0.45;;;22.00;51.20;;;;;;5033390;28;20479;-61
2023/08/15 02:25:58;;;;;;;0.95;0.50;;;22.00;49.30;;;;;;5033894;28;20033;-61
2023/08/15 02:28:26;;;;;;;1.65;0.45;;;21.60;51.70;;;;;;5017235;28;20030;-61
2023/08/15 02:30:54;;;;;;;1.80;0.70;;;21.10;51.00;;;;;;5033585;28;20037;-61
2023/08/15 02:33:21;;;;;;;2.33;0.75;;;20.00;53.40;;;;;;5001032;28;20026;-61
2023/08/15 02:35:51;;;;;;;1.27;0.50;;;19.10;56.50;;;;;;5033563;28;20125;-61
2023/08/15 02:38:18;;;;;;;2.33;0.80;;;18.60;58.10;;;;;;5033506;28;20026;-61
2023/08/15 02:40:46;;;;;;;1.33;0.70;;;18.30;58.60;;;;;;5033506;28;20026;-61
2023/08/15 02:43:14;;;;;;;2.80;0.60;;;18.10;57.00;;;;;;5033319;28;20029;-61
2023/08/15 02:45:41;;;;;;;1.33;0.80;;;17.60;58.30;;;;;;5033244;28;20056;-62
2023/08/15 02:48:08;;;;;;;1.20;0.50;;;17.70;58.60;;;;;;5017567;28;20037;-62
2023/08/15 02:50:36;;;;;;;2.80;0.75;;;17.70;58.20;;;;;;5033157;28;20026;-62
2023/08/15 02:53:04;;;;;;;1.70;0.65;;;17.60;58.40;;;;;;5032850;28;20022;-62
2023/08/15 02:55:33;;;;;;;2.15;0.50;;;17.30;59.70;;;;;;5032730;28;20021;-62
2023/08/15 02:58:01;;;;;;;3.30;0.57;;;17.30;60.20;;;;;;5017500;28;20022;-62
2023/08/15 03:00:28;;;;;;;1.92;0.85;;;17.50;60.00;;;;;;5017426;28;20448;-61
2023/08/15 03:02:56;;;;;;;1.42;1.00;;;17.60;59.30;;;;;;5017576;28;20032;-62
2023/08/15 03:05:24;;;;;;;1.52;1.00;;;17.90;58.40;;;;;;5000389;28;20034;-62
2023/08/15 03:07:51;;;;;;;2.00;0.60;;;17.80;59.10;;;;;;5017263;28;20041;-62
2023/08/15 03:10:19;;;;;;;1.73;0.60;;;18.10;58.50;;;;;;5017523;28;20435;-62
2023/08/15 03:12:48;;;;;;;2.95;0.70;;;18.20;58.00;;;;;;5032886;28;20034;-62
2023/08/15 03:15:19;;;;;;;1.75;0.93;;;18.60;58.00;;;;;;5032427;28;20037;-60
2023/08/15 03:17:47;;;;;;;1.35;0.60;;;19.10;56.40;;;;;;5016859;28;20032;-60
2023/08/15 03:20:14;;;;;;;1.48;0.55;;;18.70;56.50;;;;;;5032413;28;20496;-60
2023/08/15 03:22:43;;;;;;;4.15;0.60;;;18.50;56.00;;;;;;5032354;28;20026;-61
2023/08/15 03:25:11;;;;;;;1.65;0.63;;;18.70;56.60;;;;;;5032424;28;20022;-61
2023/08/15 03:27:38;;;;;;;1.13;0.60;;;19.30;56.90;;;;;;5031318;28;20160;-60
2023/08/15 03:30:07;;;;;;;1.85;0.60;;;20.10;54.70;;;;;;5016910;28;20018;-61
2023/08/15 03:32:34;;;;;;;1.98;0.70;;;19.70;55.60;;;;;;5032361;28;20448;-61
2023/08/15 03:35:02;;;;;;;3.03;0.80;;;19.30;55.90;;;;;;5015839;28;20026;-61
2023/08/15 03:37:30;;;;;;;2.33;0.63;;;18.90;55.40;;;;;;5032338;28;20030;-61
2023/08/15 03:39:57;;;;;;;1.98;0.60;;;18.70;55.50;;;;;;5016694;28;20030;-61
2023/08/15 03:42:25;;;;;;;0.85;0.65;;;18.90;54.90;;;;;;5016893;28;20032;-61
2023/08/15 03:44:52;;;;;;;0.95;0.50;;;18.30;56.50;;;;;;5016733;28;20428;-61
2023/08/15 03:47:20;;;;;;;1.83;0.50;;;18.00;57.10;;;;;;5016675;28;20049;-60
2023/08/15 03:49:47;;;;;;;1.13;0.50;;;18.30;56.20;;;;;;5015609;28;20048;-61
2023/08/15 03:52:15;;;;;;;3.22;0.63;;;19.00;55.60;;;;;;5031644;28;20022;-60
2023/08/15 03:54:42;;;;;;;1.70;0.50;;;18.80;55.80;;;;;;5016537;28;20018;-61
2023/08/15 03:57:10;;;;;;;2.47;0.60;;;18.60;55.60;;;;;;5016386;28;20060;-61
2023/08/15 03:59:37;;;;;;;2.25;0.98;;;18.60;57.00;;;;;;5016052;28;20037;-61
2023/08/15 04:02:05;;;;;;;1.98;0.65;;;18.60;55.90;;;;;;5031903;28;20026;-61
2023/08/15 04:04:33;;;;;;;2.25;0.60;;;18.70;55.90;;;;;;5031627;28;20132;-61
2023/08/15 04:07:00;;;;;;;1.35;0.60;;;18.60;56.90;;;;;;5016245;28;20032;-61
2023/08/15 04:09:28;;;;;;;1.13;0.60;;;19.00;55.70;;;;;;5031714;28;20022;-61
2023/08/15 04:11:55;;;;;;;2.30;0.73;;;19.40;54.10;;;;;;5016249;28;20018;-61
2023/08/15 04:14:23;;;;;;;2.00;0.63;;;19.70;55.90;;;;;;5016259;28;20030;-61
2023/08/15 04:16:50;;;;;;;0.65;0.43;;;19.60;55.90;;;;;;5031544;28;20096;-61
2023/08/15 04:19:18;;;;;;;3.08;0.70;;;19.10;56.10;;;;;;5031295;28;20046;-61
2023/08/15 04:21:45;;;;;;;2.75;0.60;;;19.00;57.00;;;;;;5031475;28;20026;-61
2023/08/15 04:24:13;;;;;;;1.38;0.52;;;18.40;58.00;;;;;;5016148;28;20075;-61
2023/08/15 04:26:41;;;;;;;2.75;1.02;;;18.30;58.40;;;;;;5031427;28;20028;-62
2023/08/15 04:29:08;;;;;;;2.08;0.80;;;18.10;59.00;;;;;;5031302;28;20026;-62
2023/08/15 04:31:42;;;;;;;2.75;0.80;;;18.00;59.40;;;;;;5015705;28;20029;-63
2023/08/15 04:34:10;;;;;;;3.75;0.95;;;17.90;59.30;;;;;;5015789;28;20052;-62
2023/08/15 04:36:38;;;;;;;2.45;0.77;;;17.60;60.30;;;;;;5030941;28;20030;-62
2023/08/15 04:39:06;;;;;;;3.40;0.70;;;17.30;60.40;;;;;;5031057;28;20387;-61
2023/08/15 04:41:33;;;;;;;2.85;0.65;;;17.30;60.40;;;;;;5031124;28;20349;-61
2023/08/15 04:44:01;;;;;;;3.13;0.70;;;17.30;60.60;;;;;;5014371;28;20022;-61
2023/08/15 04:46:29;;;;;;;2.47;0.70;;;17.40;60.80;;;;;;5014648;28;20088;-61
2023/08/15 04:48:56;;;;;;;4.00;0.60;;;17.50;61.50;;;;;;5030901;28;20068;-61
2023/08/15 04:51:24;;;;;;;1.58;0.60;;;17.30;61.20;;;;;;5031178;28;20084;-61
2023/08/15 04:53:51;;;;;;;2.80;0.68;;;17.10;61.60;;;;;;5031163;28;20026;-61
2023/08/15 04:56:19;;;;;;;2.10;0.50;;;17.10;62.10;;;;;;5014747;28;20084;-61
2023/08/15 04:58:46;;;;;;;2.97;0.88;;;17.10;62.90;;;;;;5031000;28;20026;-61
2023/08/15 05:01:14;;;;;;;2.55;0.98;;;17.20;62.80;;;;;;5030899;28;20080;-62
2023/08/15 05:03:42;;;;;;;4.20;0.80;;;17.30;62.40;;;;;;5030991;28;20072;-62
2023/08/15 05:06:10;;;;;;;3.85;1.00;;;17.40;61.70;;;;;;5030660;28;20033;-62
2023/08/15 05:08:37;;;;;;;3.30;0.80;;;17.40;61.90;;;;;;5030619;28;20022;-66
2023/08/15 05:11:04;;;;;;;1.60;0.80;;;17.80;61.40;;;;;;5032622;28;20033;-67
2023/08/15 05:13:32;;;;;;;1.38;0.70;;;19.60;61.10;;;;;;5030175;28;20147;-64
2023/08/15 05:15:59;;;;;;;2.33;0.60;;;19.70;60.30;;;;;;5017512;28;20061;-66
2023/08/15 05:18:26;;;;;;;3.70;0.60;;;20.40;58.30;;;;;;5033567;28;20025;-63
2023/08/15 05:20:54;;;;;;;2.05;0.57;;;20.40;55.40;;;;;;5037399;28;20505;-64
2023/08/15 05:23:21;;;;;;;0.95;0.50;;;19.40;60.00;;;;;;5034767;28;20053;-64
2023/08/15 05:25:53;;;;;;;2.20;0.60;;;18.70;59.50;;;;;;5033996;28;20029;-65
2023/08/15 05:28:26;;;;;;;1.02;0.57;;;18.20;59.00;;;;;;5019033;28;20057;-66
2023/08/15 05:30:54;;;;;;;3.17;0.55;;;19.40;56.70;;;;;;5035823;28;20412;-65
2023/08/15 05:33:21;;;;;;;1.92;0.70;;;21.40;52.30;;;;;;5017394;28;20017;-66
2023/08/15 05:35:49;;;;;;;1.65;0.43;;;22.10;51.20;;;;;;5032769;28;20032;-66
2023/08/15 05:38:16;;;;;;;2.58;0.80;;;20.20;53.60;;;;;;5018134;28;20025;-66
2023/08/15 05:40:53;;;;;;;3.50;0.77;;;21.70;51.60;;;;;;5035236;28;20037;-65
2023/08/15 05:43:22;;;;;;;2.90;0.50;;;21.70;51.40;;;;;;5035004;28;20033;-64
2023/08/15 05:45:50;;;;;;;3.10;0.68;;;23.10;47.50;;;;;;5034604;28;20077;-65
2023/08/15 05:48:17;;;;;;;3.50;0.60;;;23.40;47.00;;;;;;5032825;28;20029;-65
2023/08/15 05:50:45;;;;;;;3.10;0.55;;;23.30;47.10;;;;;;5033631;28;20136;-65
2023/08/15 05:53:12;;;;;;;2.00;0.75;;;23.60;46.10;;;;;;5017178;28;20029;-64
2023/08/15 05:55:45;;;;;;;1.67;0.65;;;23.10;47.70;;;;;;5034627;28;20025;-65
2023/08/15 05:58:14;;;;;;;1.30;0.57;;;23.90;46.80;;;;;;5018243;28;20026;-64
2023/08/15 06:00:42;;;;;;;3.35;0.93;;;23.70;46.40;;;;;;5018415;28;20025;-64
2023/08/15 06:03:10;;;;;;;2.35;0.77;;;23.60;46.40;;;;;;5017066;28;20099;-64
2023/08/15 06:05:37;;;;;;;2.28;0.70;;;23.40;47.50;;;;;;5016175;28;20057;-64
2023/08/15 06:08:06;;;;;;;2.53;0.77;;;24.10;46.50;;;;;;5033935;28;20024;-63
2023/08/15 06:10:33;;;;;;;3.22;0.65;;;24.50;45.20;;;;;;5034127;28;20022;-63
2023/08/15 06:13:01;;;;;;;3.75;1.10;;;24.40;44.50;;;;;;5034031;28;20049;-64
2023/08/15 06:15:28;;;;;;;1.98;0.70;;;25.20;44.80;;;;;;5017155;28;20025;-64
2023/08/15 06:18:04;;;;;;;1.70;0.70;;;25.80;43.10;;;;;;5017037;28;20026;-64
2023/08/15 06:20:37;;;;;;;2.63;0.70;;;24.40;44.80;;;;;;5035513;28;20053;-62
2023/08/15 06:23:05;;;;;;;3.10;0.77;;;24.60;45.60;;;;;;5035226;28;20025;-63
2023/08/15 06:25:33;;;;;;;3.20;0.60;;;24.60;45.10;;;;;;5016982;28;20403;-63
2023/08/15 06:28:00;;;;;;;2.47;0.80;;;21.10;51.10;;;;;;5034279;28;20021;-63
2023/08/15 06:30:28;;;;;;;2.83;0.82;;;18.70;57.70;;;;;;5019721;28;20026;-63
2023/08/15 06:33:02;;;;;;;2.88;0.80;;;17.50;61.10;;;;;;5020760;28;20055;-63
2023/08/15 06:35:35;;;;;;;1.88;0.63;;;16.90;63.40;;;;;;5020775;28;20037;-63
2023/08/15 06:38:10;;;;;;;2.33;0.75;;;16.60;64.70;;;;;;5038123;28;20028;-63
2023/08/15 06:40:46;;;;;;;3.20;0.70;;;16.50;64.80;;;;;;5036623;28;20055;-64
2023/08/15 06:43:19;;;;;;;2.83;0.85;;;16.40;65.00;;;;;;5037251;28;20033;-64
2023/08/15 06:45:50;;;;;;;1.20;0.50;;;16.20;65.20;;;;;;5039210;28;20049;-64
2023/08/15 06:48:27;;;;;;;1.38;0.50;;;16.00;65.10;;;;;;5038864;28;20523;-63
2023/08/15 06:51:03;;;;;;;4.68;0.60;;;15.70;66.30;;;;;;5021512;28;20064;-64
2023/08/15 06:53:41;;;;;;;2.03;0.52;;;15.50;67.30;;;;;;5021251;28;20022;-63
2023/08/15 06:56:16;;;;;;;3.38;0.95;;;15.40;67.70;;;;;;5038694;28;20117;-64
2023/08/15 06:58:44;;;;;;;4.28;0.82;;;15.30;68.00;;;;;;5020685;28;20025;-63
2023/08/15 07:01:12;;;;;;;3.10;0.82;;;15.30;69.30;;;;;;5036277;28;20029;-63
2023/08/15 07:03:45;;;;;;;3.58;0.90;;;15.10;69.90;;;;;;5037658;28;20359;-65
2023/08/15 07:06:21;;;;;;;2.80;0.77;;;15.10;70.50;;;;;;5037819;28;20040;-63
2023/08/15 07:08:59;;;;;;;4.30;0.90;;;15.00;70.90;;;;;;5036061;28;20083;-64
2023/08/15 07:11:29;;;;;;;3.88;1.13;;;15.00;71.10;;;;;;5037509;28;20030;-64
2023/08/15 07:14:06;;;;;;;5.10;0.80;;;15.00;71.30;;;;;;5037606;28;20394;-62
2023/08/15 07:16:35;;;;;;;3.35;0.90;;;14.90;71.70;;;;;;5036775;28;20053;-62
2023/08/15 07:19:09;;;;;;;5.25;0.90;;;14.80;72.10;;;;;;5037616;28;20064;-65
2023/08/15 07:21:45;;;;;;;3.33;0.93;;;14.70;72.90;;;;;;5037960;28;20074;-65
2023/08/15 07:24:13;;;;;;;4.35;1.02;;;14.60;73.90;;;;;;5020525;28;20108;-65
2023/08/15 07:26:40;;;;;;;4.97;2.00;;;14.50;74.60;;;;;;5035769;28;20029;-65
2023/08/15 07:29:08;;;;;;;3.95;0.90;;;14.40;74.50;;;;;;5019120;28;20029;-66
2023/08/15 07:31:35;;;;;;;4.55;1.08;;;14.30;74.60;;;;;;5035748;28;20018;-65
2023/08/15 07:34:03;;;;;;;9.38;1.88;;;14.30;74.70;;;;;;5019206;28;20398;-64
2023/08/15 07:36:31;;;;;;;7.00;0.95;;;14.30;75.70;;;;;;5018913;28;20080;-64
2023/08/15 07:38:59;;;;;;;3.25;0.90;;;14.30;75.90;;;;;;5036454;28;20025;-64
2023/08/15 07:41:26;;;;;;;3.38;0.90;;;14.20;76.20;;;;;;5018622;28;20025;-64
2023/08/15 07:44:05;;;;;;;3.15;1.13;;;14.10;76.70;;;;;;5018976;28;20059;-63
2023/08/15 07:46:32;;;;;;;4.65;0.90;;;14.10;76.30;;;;;;5035380;28;20026;-62
2023/08/15 07:49:00;;;;;;;2.88;0.80;;;14.00;74.50;;;;;;5035150;28;20036;-62
2023/08/15 07:51:27;;;;;;;1.50;0.77;;;14.00;74.40;;;;;;5036311;28;20439;-62
2023/08/15 07:53:55;;;;;;;3.17;0.60;;;14.00;73.50;;;;;;5035014;28;20515;-62
2023/08/15 07:56:23;;;;;;;1.67;0.65;;;14.00;72.80;;;;;;5035137;28;20026;-61
2023/08/15 07:58:50;;;;;;;2.22;0.70;;;13.90;72.10;;;;;;5035140;28;20053;-62
2023/08/15 08:01:18;;;;;;;1.65;0.52;;;13.90;72.70;;;;;;5036277;28;20434;-62
2023/08/15 08:03:45;;;;;;;1.50;0.50;;;13.90;72.90;;;;;;5036245;28;20040;-62
2023/08/15 08:06:13;;;;;;;1.70;0.63;;;13.70;73.20;;;;;;5036233;28;20034;-64
2023/08/15 08:08:41;;;;;;;2.10;0.60;;;13.80;73.60;;;;;;5018709;28;20071;-65
2023/08/15 08:11:09;;;;;;;2.45;0.60;;;13.70;73.70;;;;;;5036125;28;20045;-66
2023/08/15 08:13:37;;;;;;;2.25;0.70;;;13.70;74.00;;;;;;5018592;28;20339;-65
2023/08/15 08:16:04;;;;;;;3.70;0.60;;;13.60;74.20;;;;;;5018566;28;20053;-64
2023/08/15 08:18:32;;;;;;;4.18;0.70;;;13.60;74.60;;;;;;5017909;28;20068;-63
2023/08/15 08:21:03;;;;;;;1.10;0.80;;;13.60;75.00;;;;;;5018547;28;20120;-64
2023/08/15 08:23:31;;;;;;;2.17;0.60;;;13.50;75.00;;;;;;5018464;28;20112;-64
2023/08/15 08:25:59;;;;;;;4.05;0.63;;;13.50;75.30;;;;;;5034793;28;20052;-63
2023/08/15 08:28:27;;;;;;;2.38;0.77;;;13.50;75.40;;;;;;5018283;28;20029;-63
2023/08/15 08:30:55;;;;;;;4.07;0.80;;;13.50;75.70;;;;;;5018339;28;20041;-63
2023/08/15 08:33:23;;;;;;;2.90;0.98;;;13.50;76.30;;;;;;5018275;28;20105;-62
2023/08/15 08:35:56;;;;;;;3.80;0.68;;;13.40;76.30;;;;;;5036444;28;20029;-63
2023/08/15 08:38:25;;;;;;;2.03;0.70;;;13.50;76.20;;;;;;5037781;28;20055;-63
2023/08/15 08:40:55;;;;;;;5.80;2.60;;;13.40;76.20;;;;;;5018104;28;20056;-63
2023/08/15 08:43:25;;;;;;;6.03;1.20;;;13.40;76.50;;;;;;5035429;28;20518;-62
2023/08/15 08:45:55;;;;;;;2.88;1.00;;;13.30;76.80;;;;;;5017935;28;20695;-63
2023/08/15 08:48:23;;;;;;;3.22;1.10;;;13.30;77.00;;;;;;5017782;28;20032;-64
2023/08/15 08:50:51;;;;;;;2.00;0.82;;;13.30;77.40;;;;;;5035336;28;20031;-64
2023/08/15 08:53:19;;;;;;;2.60;1.05;;;13.30;77.30;;;;;;5034826;28;20017;-63
2023/08/15 08:55:48;;;;;;;3.05;0.90;;;13.30;77.20;;;;;;5017942;28;20137;-64
2023/08/15 08:58:16;;;;;;;3.10;0.80;;;13.30;77.30;;;;;;5001520;28;20033;-64
2023/08/15 09:00:44;;;;;;;1.98;0.80;;;13.20;77.40;;;;;;5017811;28;20025;-63
2023/08/15 09:03:11;;;;;;;3.20;1.10;;;13.20;77.80;;;;;;5017703;28;20029;-63
2023/08/15 09:05:42;;;;;;;3.78;1.10;;;13.10;77.60;;;;;;5017641;28;20037;-64
2023/08/15 09:08:10;;;;;;;3.72;1.17;;;13.10;77.70;;;;;;5017556;28;20026;-64
2023/08/15 09:10:37;;;;;;;5.05;1.27;;;13.10;77.90;;;;;;5034004;28;20033;-64
2023/08/15 09:13:05;;;;;;;2.17;1.35;;;13.10;78.20;;;;;;5017708;28;20033;-64
2023/08/15 09:15:33;;;;;;;3.30;1.65;;;13.10;78.60;;;;;;5017643;28;20017;-63
2023/08/15 09:18:07;;;;;;;3.88;1.88;;;12.90;78.30;;;;;;5033939;28;20116;-64
2023/08/15 09:20:45;;;;;;;3.13;1.35;;;12.90;78.60;;;;;;5030647;28;20468;-64
2023/08/15 09:23:13;;;;;;;2.17;1.48;;;12.80;78.70;;;;;;5014657;28;20041;-63
2023/08/15 09:25:41;;;;;;;3.03;1.50;;;12.80;79.60;;;;;;5015200;28;20396;-64
2023/08/15 09:28:09;;;;;;;2.88;1.40;;;12.70;80.00;;;;;;5030518;28;20040;-63
2023/08/15 09:30:37;;;;;;;3.70;1.65;;;12.70;79.80;;;;;;5030526;28;20057;-63
2023/08/15 09:33:06;;;;;;;3.63;1.80;;;12.60;79.90;;;;;;5030503;28;20030;-64
2023/08/15 09:35:33;;;;;;;3.33;2.15;;;12.60;80.10;;;;;;5030559;28;20061;-63
2023/08/15 09:38:07;;;;;;;5.10;2.25;;;12.50;80.40;;;;;;5015158;28;20021;-64
2023/08/15 09:40:35;;;;;;;5.68;2.08;;;12.60;80.50;;;;;;5014225;28;20026;-63
2023/08/15 09:43:04;;;;;;;5.03;1.90;;;12.50;80.40;;;;;;5030654;28;20033;-65
2023/08/15 09:45:32;;;;;;;4.30;1.80;;;12.60;80.40;;;;;;5030652;28;20038;-64
2023/08/15 09:48:01;;;;;;;4.13;1.83;;;12.60;80.20;;;;;;5030445;28;20108;-64
2023/08/15 09:50:30;;;;;;;5.18;2.35;;;12.60;80.20;;;;;;5030139;28;20022;-70
2023/08/15 09:53:00;;;;;;;3.47;2.15;;;12.60;79.90;;;;;;5015065;28;20018;-64
2023/08/15 09:55:29;;;;;;;4.95;2.35;;;12.50;80.20;;;;;;5030399;28;20022;-65
2023/08/15 09:57:57;;;;;;;5.00;2.58;;;12.50;80.40;;;;;;5030402;28;20452;-66
2023/08/15 10:00:24;;;;;;;5.30;3.10;;;12.40;80.30;;;;;;5030407;28;20117;-65
2023/08/15 10:02:57;;;;;;;5.43;2.75;;;12.30;80.70;;;;;;5030937;28;20033;-65
2023/08/15 10:05:30;;;;;;;6.90;2.47;;;12.20;80.80;;;;;;5017925;28;20022;-71
2023/08/15 10:07:59;;;;;;;6.22;2.60;;;12.10;80.80;;;;;;5033888;28;20419;-71
2023/08/15 10:10:30;;;;;;;4.22;2.75;;;12.10;81.50;;;;;;5034035;28;20029;-70
2023/08/15 10:12:59;;;;;;;5.65;3.28;;;12.10;81.80;;;;;;5017650;28;20356;-70
2023/08/15 10:15:30;;;;;;;6.70;2.60;;;12.00;81.70;;;;;;5034064;28;20353;-70
2023/08/15 10:17:58;;;;;;;5.93;2.47;;;12.10;81.90;;;;;;5017805;28;20460;-70
2023/08/15 10:20:26;;;;;;;7.60;2.40;;;12.10;81.80;;;;;;5033765;28;20056;-72
2023/08/15 10:22:59;;;;;;;4.80;2.25;;;12.10;82.00;;;;;;5034084;28;20025;-70
2023/08/15 10:25:34;;;;;;;5.82;2.60;;;12.10;82.10;;;;;;5034006;28;20088;-71
2023/08/15 10:28:07;;;;;;;5.60;2.00;;;12.10;82.10;;;;;;5033848;28;20066;-65
2023/08/15 10:30:47;;;;;;;3.28;2.13;;;12.10;82.10;;;;;;5018376;28;20037;-65
2023/08/15 10:33:16;;;;;;;5.85;2.45;;;12.00;82.50;;;;;;5033826;28;20030;-64
2023/08/15 10:36:09;;;;;;;4.80;2.30;;;12.00;82.20;;;;;;5033768;28;20045;-65
2023/08/15 10:38:44;;;;;;;4.43;2.78;;;12.00;82.60;;;;;;5016980;28;20034;-71
2023/08/15 10:41:21;;;;;;;5.28;2.55;;;12.00;82.60;;;;;;5017471;28;20022;-65
2023/08/15 10:43:59;;;;;;;5.13;2.60;;;11.80;82.40;;;;;;5033709;28;20026;-65
2023/08/15 10:46:29;;;;;;;4.10;2.40;;;11.80;82.80;;;;;;5018188;28;20105;-64
2023/08/15 10:49:02;;;;;;;6.03;2.65;;;11.80;83.00;;;;;;5016917;28;20040;-65
2023/08/15 10:51:36;;;;;;;6.00;2.67;;;11.60;82.90;;;;;;5017502;28;20364;-66
2023/08/15 10:54:07;;;;;;;5.15;2.45;;;11.50;83.60;;;;;;5018055;28;20022;-71
2023/08/15 10:56:38;;;;;;;5.93;3.50;;;11.40;84.20;;;;;;5018075;28;20352;-65
2023/08/15 10:59:18;;;;;;;5.68;3.45;;;11.30;84.40;;;;;;5000901;28;20028;-72
2023/08/15 11:01:47;;;;;;;5.97;3.42;;;11.20;84.30;;;;;;5033417;28;20042;-70
2023/08/15 11:04:18;;;;;;;6.00;3.38;;;11.20;84.20;;;;;;5033244;28;20030;-71
2023/08/15 11:06:52;;;;;;;5.93;3.75;;;11.10;84.00;;;;;;5017717;28;20108;-69
2023/08/15 11:09:27;;;;;;;5.97;3.60;;;10.90;84.70;;;;;;5033039;28;20046;-71
2023/08/15 11:12:02;;;;;;;6.10;3.30;;;10.70;84.90;;;;;;5000615;28;20117;-65
2023/08/15 11:14:30;;;;;;;8.73;3.17;;;10.40;85.40;;;;;;5016901;28;20396;-70
2023/08/15 11:16:58;;;;;;;5.57;3.05;;;10.00;87.10;;;;;;5017553;28;20081;-71
2023/08/15 11:19:25;;;;;;;6.28;4.07;;;9.80;87.90;;;;;;5032721;28;20037;-71
2023/08/15 11:21:56;;;;;;;7.55;3.55;;;10.00;88.00;;;;;;5017542;28;20032;-73
2023/08/15 11:24:29;;;;;;;6.78;3.38;;;10.10;87.20;;;;;;5034586;28;20022;-71
2023/08/15 11:26:59;;;;;;;5.57;3.20;;;10.10;87.20;;;;;;5016421;28;20022;-71
2023/08/15 11:29:26;;;;;;;5.82;3.78;;;10.00;87.30;;;;;;5032535;28;20110;-64
2023/08/15 11:31:58;;;;;;;7.65;3.70;;;10.00;87.60;;;;;;5017207;28;20498;-65
2023/08/15 11:34:26;;;;;;;6.55;3.65;;;10.10;87.70;;;;;;5017217;28;20022;-65
2023/08/15 11:36:54;;;;;;;7.75;3.65;;;10.20;87.50;;;;;;5032669;28;20297;-61
2023/08/15 11:39:21;;;;;;;4.57;3.20;;;10.10;87.40;;;;;;5016869;28;20040;-69
2023/08/15 11:41:49;;;;;;;6.40;4.13;;;9.90;87.90;;;;;;5016903;28;20057;-69
2023/08/15 11:44:23;;;;;;;5.82;3.45;;;9.80;88.40;;;;;;5032451;28;20029;-69
2023/08/15 11:46:51;;;;;;;5.32;3.45;;;9.60;88.90;;;;;;5032513;28;20022;-70
2023/08/15 11:49:18;;;;;;;5.25;3.33;;;9.60;89.00;;;;;;5016784;28;20395;-63
2023/08/15 11:51:46;;;;;;;6.57;3.42;;;9.60;89.20;;;;;;5032371;28;20029;-69
2023/08/15 11:54:14;;;;;;;6.25;3.25;;;9.60;88.60;;;;;;5032311;28;20030;-69
2023/08/15 11:56:54;;;;;;;7.13;3.33;;;9.50;88.90;;;;;;5016592;28;20022;-62
2023/08/15 11:59:23;;;;;;;7.28;3.50;;;9.50;89.30;;;;;;5016540;28;20080;-62
2023/08/15 12:01:51;;;;;;;7.55;3.65;;;9.50;89.20;;;;;;5016705;28;20018;-62
2023/08/15 12:04:20;;;;;;;8.80;3.72;;;9.50;89.40;;;;;;5032151;28;20025;-63
2023/08/15 12:06:47;;;;;;;8.63;4.00;;;9.40;89.40;;;;;;5015645;28;20452;-70
2023/08/15 12:09:15;;;;;;;7.05;3.58;;;9.30;89.70;;;;;;5031813;28;20498;-69
2023/08/15 12:11:43;;;;;;;6.28;3.65;;;9.30;89.90;;;;;;5016235;28;20026;-70
2023/08/15 12:14:21;;;;;;;8.13;3.58;;;9.20;89.80;;;;;;5031993;28;20080;-61
2023/08/15 12:16:49;;;;;;;4.80;3.40;;;9.10;90.30;;;;;;4999372;28;20057;-69
2023/08/15 12:19:17;;;;;;;8.30;4.68;;;9.00;90.50;;;;;;5031616;28;20352;-69
2023/08/15 12:21:44;;;;;;;7.22;3.50;;;8.90;90.70;;;;;;5031759;28;20030;-62
2023/08/15 12:24:12;;;;;;;7.00;4.00;;;8.90;90.80;;;;;;5015363;28;20415;-69
2023/08/15 12:26:39;;;;;;;5.65;3.75;;;8.80;91.00;;;;;;5014361;28;20037;-69
2023/08/15 12:29:07;;;;;;;4.90;3.38;;;8.80;91.20;;;;;;5031563;28;20034;-70
2023/08/15 12:31:36;;;;;;;7.95;3.83;;;8.90;90.80;;;;;;5031610;28;20444;-69
2023/08/15 12:34:04;;;;;;;10.57;3.85;;;8.80;90.80;;;;;;5031536;28;20029;-62
2023/08/15 12:36:31;;;;;;;8.25;4.53;;;8.90;90.90;;;;;;5015104;28;20026;-62
2023/08/15 12:38:59;;;;;;;7.78;4.28;;;8.80;90.70;;;;;;5031374;28;20029;-62
2023/08/15 12:41:26;;;;;;;7.10;4.25;;;8.80;90.70;;;;;;5016025;28;20105;-69
2023/08/15 12:43:54;;;;;;;8.43;5.18;;;8.90;90.50;;;;;;5032156;28;20037;-70
2023/08/15 12:46:23;;;;;;;10.98;6.97;;;8.80;90.10;;;;;;5031506;28;20049;-70
2023/08/15 12:48:50;;;;;;;10.93;6.90;;;8.80;89.80;;;;;;5031304;28;20508;-69
2023/08/15 12:51:18;;;;;;;11.48;6.90;;;8.70;90.00;;;;;;5031333;28;20026;-69
2023/08/15 12:53:45;;;;;;;10.80;5.53;;;8.90;90.40;;;;;;5031287;28;20054;-69
2023/08/15 12:56:13;;;;;;;10.98;5.95;;;8.90;89.80;;;;;;5031302;28;20333;-69
2023/08/15 12:58:40;;;;;;;9.93;6.70;;;9.00;89.50;;;;;;5031126;28;20037;-70